createdAt,value
2024-04-21T00:02:37.010Z,100.00
2024-04-21T00:07:38.717Z,100.00
2024-04-21T00:12:40.458Z,100.00
2024-04-21T00:17:42.536Z,100.00
2024-04-21T00:22:44.340Z,100.00
2024-04-21T00:27:46.364Z,100.00
2024-04-21T00:32:48.263Z,100.00
2024-04-21T00:37:50.059Z,100.00
2024-04-21T00:42:59.616Z,100.00
2024-04-21T00:48:01.476Z,100.00
2024-04-21T00:53:03.580Z,100.00
2024-04-21T00:58:06.269Z,100.00
2024-04-21T01:03:08.637Z,100.00
2024-04-21T01:08:10.785Z,100.00
2024-04-21T01:13:13.441Z,100.00
2024-04-21T01:18:15.523Z,100.00
2024-04-21T01:23:20.482Z,100.00
2024-04-21T01:28:22.624Z,100.00
2024-04-21T01:33:24.726Z,100.00
2024-04-21T01:38:26.735Z,100.00
2024-04-21T01:43:28.483Z,100.00
2024-04-21T01:48:30.324Z,100.00
2024-04-21T01:53:33.625Z,100.00
2024-04-21T01:58:35.346Z,100.00
2024-04-21T02:03:37.132Z,100.00
2024-04-21T02:08:38.923Z,100.00
2024-04-21T02:13:40.692Z,100.00
2024-04-21T02:18:42.485Z,100.00
2024-04-21T02:23:48.662Z,100.00
2024-04-21T02:28:50.477Z,100.00
2024-04-21T02:33:52.269Z,100.00
2024-04-21T02:38:55.886Z,100.00
2024-04-21T02:43:57.645Z,100.00
2024-04-21T02:48:59.554Z,100.00
2024-04-21T02:54:01.326Z,100.00
2024-04-21T02:59:03.393Z,100.00
2024-04-21T03:04:05.448Z,100.00
2024-04-21T03:09:07.410Z,100.00
2024-04-21T03:14:09.187Z,100.00
2024-04-21T03:19:11.248Z,100.00
2024-04-21T03:24:13.220Z,100.00
2024-04-21T03:29:15.113Z,100.00
2024-04-21T03:34:16.876Z,100.00
2024-04-21T03:39:19.605Z,100.00
2024-04-21T03:44:22.369Z,100.00
2024-04-21T03:49:24.172Z,100.00
2024-04-21T03:54:25.966Z,100.00
2024-04-21T03:59:27.685Z,100.00
2024-04-21T04:04:29.676Z,100.00
2024-04-21T04:09:31.469Z,100.00
2024-04-21T04:14:33.359Z,100.00
2024-04-21T04:19:35.112Z,100.00
2024-04-21T04:24:36.839Z,100.00
2024-04-21T04:29:38.865Z,100.00
2024-04-21T04:34:40.609Z,100.00
2024-04-21T04:39:42.393Z,100.00
2024-04-21T04:44:44.420Z,100.00
2024-04-21T04:49:46.160Z,100.00
2024-04-21T04:54:47.944Z,100.00
2024-04-21T04:59:49.783Z,100.00
2024-04-21T05:05:16.860Z,100.00
2024-04-21T05:10:18.999Z,100.00
2024-04-21T05:15:21.012Z,100.00
2024-04-21T05:20:23.495Z,100.00
2024-04-21T05:25:25.508Z,100.00
2024-04-21T05:30:27.549Z,100.00
2024-04-21T05:35:29.502Z,100.00
2024-04-21T05:40:31.558Z,100.00
2024-04-21T05:45:33.608Z,100.00
2024-04-21T05:50:35.591Z,100.00
2024-04-21T05:55:37.559Z,100.00
2024-04-21T06:00:39.824Z,100.00
2024-04-21T06:05:43.100Z,100.00
2024-04-21T06:10:46.030Z,100.00
2024-04-21T06:15:48.058Z,100.00
2024-04-21T06:20:50.043Z,100.00
2024-04-21T06:25:51.997Z,100.00
2024-04-21T06:30:54.008Z,100.00
2024-04-21T06:35:56.003Z,100.00
2024-04-21T06:40:58.422Z,100.00
2024-04-21T06:46:00.633Z,100.00
2024-04-21T06:51:02.676Z,100.00
2024-04-21T06:56:04.976Z,100.00
2024-04-21T07:01:07.103Z,100.00
2024-04-21T07:06:09.180Z,100.00
2024-04-21T07:11:11.428Z,100.00
2024-04-21T07:16:13.476Z,100.00
2024-04-21T07:21:15.435Z,100.00
2024-04-21T07:26:17.569Z,100.00
2024-04-21T07:31:19.603Z,100.00
2024-04-21T07:36:21.588Z,100.00
2024-04-21T07:41:24.165Z,100.00
2024-04-21T07:46:26.158Z,100.00
2024-04-21T07:51:28.169Z,100.00
2024-04-21T07:56:30.179Z,100.00
2024-04-21T08:01:32.324Z,100.00
2024-04-21T08:06:34.350Z,100.00
2024-04-21T08:11:36.533Z,100.00
2024-04-21T08:16:38.594Z,100.00
2024-04-21T08:21:40.579Z,100.00
2024-04-21T08:26:42.608Z,100.00
2024-04-21T08:31:44.560Z,100.00
2024-04-21T08:36:46.583Z,100.00
2024-04-21T08:41:48.708Z,100.00
2024-04-21T08:46:54.217Z,100.00
2024-04-21T08:52:00.218Z,100.00
2024-04-21T08:57:04.485Z,100.00
2024-04-21T09:02:07.056Z,100.00
2024-04-21T09:07:09.479Z,100.00
2024-04-21T09:12:14.122Z,100.00
2024-04-21T09:17:16.128Z,100.00
2024-04-21T09:22:18.145Z,100.00
2024-04-21T09:27:20.436Z,100.00
2024-04-21T09:32:22.404Z,100.00
2024-04-21T09:37:25.102Z,100.00
2024-04-21T09:42:32.504Z,100.00
2024-04-21T09:47:35.846Z,100.00
2024-04-21T09:52:38.394Z,100.00
2024-04-21T09:57:42.025Z,100.00
2024-04-21T10:02:50.102Z,100.00
2024-04-21T10:07:52.541Z,100.00
2024-04-21T10:12:56.416Z,100.00
2024-04-21T10:18:00.031Z,100.00
2024-04-21T10:23:12.745Z,100.00
2024-04-21T10:28:25.838Z,100.00
2024-04-21T10:33:29.668Z,100.00
2024-04-21T10:38:31.668Z,100.00
2024-04-21T10:43:33.632Z,100.00
2024-04-21T10:48:35.624Z,100.00
2024-04-21T10:53:37.691Z,100.00
2024-04-21T10:58:39.668Z,100.00
2024-04-21T11:03:45.000Z,100.00
2024-04-21T11:08:49.577Z,100.00
2024-04-21T11:13:54.415Z,100.00
2024-04-21T11:18:57.602Z,100.00
2024-04-21T11:23:59.934Z,100.00
2024-04-21T11:29:01.967Z,100.00
2024-04-21T11:34:04.481Z,100.00
2024-04-21T11:39:06.794Z,100.00
2024-04-21T11:44:22.306Z,100.00
2024-04-21T11:49:24.319Z,100.00
2024-04-21T11:54:26.349Z,100.00
2024-04-21T11:59:28.277Z,100.00
2024-04-21T12:04:30.495Z,100.00
2024-04-21T12:09:32.500Z,100.00
2024-04-21T12:14:34.626Z,100.00
2024-04-21T12:19:36.675Z,81.47
2024-04-21T12:24:40.324Z,90.44
2024-04-21T12:29:43.758Z,98.77
2024-04-21T12:34:45.733Z,86.62
2024-04-21T12:39:47.769Z,74.89
2024-04-21T12:44:49.725Z,76.14
2024-04-21T12:49:51.675Z,84.79
2024-04-21T12:54:53.624Z,99.46
2024-04-21T12:59:55.718Z,100.00
2024-04-21T13:04:58.510Z,100.00
2024-04-21T13:10:00.707Z,91.51
2024-04-21T13:15:02.786Z,89.18
2024-04-21T13:20:05.150Z,91.18
2024-04-21T13:25:08.034Z,100.00
2024-04-21T13:30:10.914Z,100.00
2024-04-21T13:35:12.940Z,96.87
2024-04-21T13:40:14.892Z,84.58
2024-04-21T13:45:16.865Z,92.24
2024-04-21T13:50:18.930Z,100.00
2024-04-21T13:55:20.938Z,85.85
2024-04-21T14:00:23.066Z,95.18
2024-04-21T14:05:25.449Z,88.66
2024-04-21T14:10:27.404Z,77.79
2024-04-21T14:15:30.903Z,96.22
2024-04-21T14:20:33.019Z,99.82
2024-04-21T14:25:35.055Z,96.49
2024-04-21T14:30:37.106Z,100.00
2024-04-21T14:35:39.097Z,84.11
2024-04-21T14:40:41.070Z,85.73
2024-04-21T14:45:49.104Z,93.17
2024-04-21T14:50:58.024Z,98.58
2024-04-21T14:56:01.679Z,100.00
2024-04-21T15:01:03.861Z,100.00
2024-04-21T15:06:05.943Z,100.00
2024-04-21T15:11:07.916Z,100.00
2024-04-21T15:16:10.001Z,93.47
2024-04-21T15:21:12.350Z,91.45
2024-04-21T15:26:14.388Z,93.75
2024-04-21T15:31:16.471Z,96.42
2024-04-21T15:36:18.639Z,99.00
2024-04-21T15:41:20.601Z,100.00
2024-04-21T15:46:22.622Z,100.00
2024-04-21T15:51:25.718Z,100.00
2024-04-21T15:56:27.742Z,100.00
2024-04-21T16:01:29.811Z,100.00
2024-04-21T16:06:31.976Z,100.00
2024-04-21T16:11:35.668Z,100.00
2024-04-21T16:16:40.523Z,100.00
2024-04-21T16:21:42.613Z,100.00
2024-04-21T16:26:44.740Z,100.00
2024-04-21T16:31:46.951Z,100.00
2024-04-21T16:36:49.341Z,100.00
2024-04-21T16:41:51.752Z,100.00
2024-04-21T16:46:56.757Z,100.00
2024-04-21T16:52:01.666Z,100.00
2024-04-21T16:57:18.486Z,100.00
2024-04-21T17:02:25.408Z,100.00
2024-04-21T17:07:35.918Z,100.00
2024-04-21T17:12:38.827Z,100.00
2024-04-21T17:17:40.985Z,100.00
2024-04-21T17:22:42.999Z,100.00
2024-04-21T17:27:45.311Z,100.00
2024-04-21T17:32:47.367Z,100.00
2024-04-21T17:37:50.822Z,100.00
2024-04-21T17:42:55.249Z,100.00
2024-04-21T17:47:57.860Z,100.00
2024-04-21T17:53:01.621Z,100.00
2024-04-21T17:58:03.988Z,100.00
2024-04-21T18:03:06.125Z,100.00
2024-04-21T18:08:08.169Z,100.00
2024-04-21T18:13:10.215Z,100.00
2024-04-21T18:18:12.487Z,100.00
2024-04-21T18:23:14.678Z,100.00
2024-04-21T18:28:16.872Z,100.00
2024-04-21T18:33:19.279Z,100.00
2024-04-21T18:38:21.678Z,100.00
2024-04-21T18:43:24.129Z,100.00
2024-04-21T18:48:26.321Z,100.00
2024-04-21T18:53:28.339Z,100.00
2024-04-21T18:58:30.539Z,100.00
2024-04-21T19:03:32.649Z,100.00
2024-04-21T19:08:34.778Z,100.00
2024-04-21T19:13:43.913Z,100.00
2024-04-21T19:18:46.205Z,100.00
2024-04-21T19:23:48.564Z,100.00
2024-04-21T19:28:52.364Z,100.00
2024-04-21T19:33:54.374Z,100.00
2024-04-21T19:38:56.394Z,100.00
2024-04-21T19:43:58.483Z,100.00
2024-04-21T19:49:00.580Z,100.00
2024-04-21T19:54:07.664Z,100.00
2024-04-21T19:59:13.160Z,100.00
2024-04-21T20:04:15.327Z,100.00
2024-04-21T20:09:17.360Z,100.00
2024-04-21T20:14:19.695Z,100.00
2024-04-21T20:19:21.710Z,100.00
2024-04-21T20:24:23.767Z,100.00
2024-04-21T20:29:25.832Z,100.00
2024-04-21T20:34:28.861Z,100.00
2024-04-21T20:39:31.015Z,100.00
2024-04-21T20:44:32.983Z,100.00
2024-04-21T20:49:35.192Z,100.00
2024-04-21T20:54:37.234Z,100.00
2024-04-21T20:59:39.335Z,100.00
2024-04-21T21:04:41.417Z,100.00
2024-04-21T21:09:43.607Z,100.00
2024-04-21T21:14:46.834Z,100.00
2024-04-21T21:19:48.960Z,100.00
2024-04-21T21:24:51.268Z,100.00
2024-04-21T21:29:53.631Z,100.00
2024-04-21T21:34:55.612Z,100.00
2024-04-21T21:39:57.620Z,100.00
2024-04-21T21:44:59.589Z,100.00
2024-04-21T21:50:01.630Z,100.00
2024-04-21T21:55:04.137Z,100.00
2024-04-21T22:00:06.995Z,100.00
2024-04-21T22:05:09.862Z,100.00
2024-04-21T22:10:11.996Z,100.00
2024-04-21T22:15:14.821Z,100.00
2024-04-21T22:20:16.844Z,100.00
2024-04-21T22:25:18.828Z,100.00
2024-04-21T22:30:21.028Z,100.00
2024-04-21T22:35:23.055Z,100.00
2024-04-21T22:40:25.175Z,100.00
2024-04-21T22:45:27.218Z,100.00
2024-04-21T22:50:29.182Z,100.00
2024-04-21T22:55:31.251Z,100.00
2024-04-21T23:00:33.394Z,100.00
2024-04-21T23:05:37.741Z,100.00
2024-04-21T23:10:39.998Z,100.00
2024-04-21T23:15:42.299Z,100.00
2024-04-21T23:20:44.386Z,100.00
2024-04-21T23:25:46.379Z,100.00
2024-04-21T23:30:48.515Z,100.00
2024-04-21T23:35:50.517Z,100.00
2024-04-21T23:40:52.520Z,100.00
2024-04-21T23:45:54.506Z,100.00
2024-04-21T23:50:56.525Z,100.00
2024-04-21T23:55:58.468Z,100.00
